Time;durP1;ratioP1;P1;durP2;ratioP2;P2;SDS_P1;SDS_P2;PMS_P1;PMS_P2;Temp;Humidity;BMP_temperature;BMP_pressure;BME280_temperature;BME280_humidity;BME280_pressure;Samples;Min_cycle;Max_cycle;Signal;HPM_P1;HPM_P2
2023/07/13 00:01:31;;;;;;;8.70;2.75;;;17.20;99.90;;;;;;5092407;28;20047;-62
2023/07/13 00:03:59;;;;;;;10.80;3.03;;;17.20;99.90;;;;;;5092571;28;20036;-62
2023/07/13 00:06:25;;;;;;;9.57;3.15;;;17.20;99.90;;;;;;5092451;28;20399;-62
2023/07/13 00:08:51;;;;;;;10.20;3.20;;;17.10;99.90;;;;;;5092727;28;20448;-63
2023/07/13 00:11:17;;;;;;;11.18;3.85;;;17.20;99.90;;;;;;5092114;28;20040;-63
2023/07/13 00:13:44;;;;;;;9.32;3.30;;;17.20;99.90;;;;;;5091912;28;20113;-62
2023/07/13 00:16:11;;;;;;;8.40;3.08;;;17.20;99.90;;;;;;5092148;28;20415;-62
2023/07/13 00:18:37;;;;;;;12.05;3.40;;;17.10;99.90;;;;;;5092295;28;20056;-63
2023/07/13 00:21:07;;;;;;;9.77;2.92;;;17.20;99.90;;;;;;5092201;28;20276;-62
2023/07/13 00:23:38;;;;;;;11.90;3.40;;;17.10;99.90;;;;;;5092294;28;20040;-62
2023/07/13 00:26:07;;;;;;;9.27;3.22;;;17.10;99.90;;;;;;5092650;28;20044;-62
2023/07/13 00:28:34;;;;;;;10.43;3.05;;;17.10;99.90;;;;;;5092554;28;20521;-62
2023/07/13 00:31:01;;;;;;;10.20;3.55;;;17.00;99.90;;;;;;5092456;28;20415;-63
2023/07/13 00:33:28;;;;;;;10.57;3.50;;;17.00;99.90;;;;;;5091932;28;20051;-62
2023/07/13 00:35:57;;;;;;;10.32;3.30;;;17.00;99.90;;;;;;5091686;28;20484;-63
2023/07/13 00:38:23;;;;;;;8.52;3.05;;;16.90;99.90;;;;;;5091809;28;20059;-63
2023/07/13 00:40:49;;;;;;;8.15;3.42;;;16.90;99.90;;;;;;5092117;28;20058;-62
2023/07/13 00:43:19;;;;;;;8.10;2.88;;;16.90;99.90;;;;;;5091647;28;20036;-62
2023/07/13 00:45:45;;;;;;;10.63;3.40;;;16.90;99.90;;;;;;5091968;28;20048;-62
2023/07/13 00:48:15;;;;;;;8.00;2.60;;;16.90;99.90;;;;;;5091574;28;20434;-62
2023/07/13 00:50:43;;;;;;;8.68;3.10;;;16.90;99.90;;;;;;5091778;28;20044;-63
2023/07/13 00:53:10;;;;;;;7.03;3.25;;;16.90;99.90;;;;;;5083436;28;20052;-61
2023/07/13 00:55:36;;;;;;;10.18;3.10;;;16.90;99.90;;;;;;5092038;28;20149;-62
2023/07/13 00:58:04;;;;;;;11.55;3.00;;;16.90;99.90;;;;;;5091595;28;20060;-62
2023/07/13 01:00:31;;;;;;;8.63;2.55;;;16.90;99.90;;;;;;5091790;28;20106;-62
2023/07/13 01:02:57;;;;;;;10.07;3.72;;;16.90;99.90;;;;;;5091802;28;20048;-62
2023/07/13 01:05:25;;;;;;;11.07;3.70;;;16.90;99.90;;;;;;5092347;28;20114;-62
2023/07/13 01:07:52;;;;;;;7.30;2.88;;;16.80;99.90;;;;;;5091634;28;20052;-62
2023/07/13 01:10:22;;;;;;;9.23;3.30;;;16.80;99.90;;;;;;5092456;28;20059;-63
2023/07/13 01:12:48;;;;;;;9.25;3.55;;;16.90;99.90;;;;;;5091940;28;20039;-63
2023/07/13 01:15:37;;;;;;;9.50;3.22;;;16.90;99.90;;;;;;5092247;28;20150;-62
2023/07/13 01:18:05;;;;;;;9.02;3.78;;;16.80;99.90;;;;;;5073554;28;20048;-62
2023/07/13 01:20:36;;;;;;;10.35;3.53;;;16.70;99.90;;;;;;5091608;28;20048;-63
2023/07/13 01:23:08;;;;;;;7.15;3.00;;;16.80;99.90;;;;;;5074380;28;20424;-62
2023/07/13 01:25:35;;;;;;;8.23;3.65;;;16.70;99.90;;;;;;5091768;28;20334;-62
2023/07/13 01:28:03;;;;;;;9.93;3.50;;;16.60;99.90;;;;;;5091889;28;20159;-62
2023/07/13 01:30:31;;;;;;;7.30;3.20;;;16.60;99.90;;;;;;5094500;28;20535;-63
2023/07/13 01:32:57;;;;;;;9.73;3.70;;;16.60;99.90;;;;;;5094911;28;20467;-63
2023/07/13 01:35:25;;;;;;;7.50;3.30;;;16.50;99.90;;;;;;5094896;28;20052;-62
2023/07/13 01:37:51;;;;;;;11.05;3.08;;;16.50;99.90;;;;;;5094938;28;20496;-62
2023/07/13 01:40:17;;;;;;;9.63;3.22;;;16.50;99.90;;;;;;5095231;28;20051;-63
2023/07/13 01:42:44;;;;;;;9.00;4.18;;;16.40;99.90;;;;;;5095343;28;20058;-62
2023/07/13 01:45:10;;;;;;;10.52;3.70;;;16.40;99.90;;;;;;5095004;28;20048;-63
2023/07/13 01:47:36;;;;;;;7.72;3.15;;;16.30;99.90;;;;;;5094484;28;20418;-63
2023/07/13 01:50:03;;;;;;;8.65;3.45;;;16.30;99.90;;;;;;5094956;28;20124;-63
2023/07/13 01:52:30;;;;;;;10.02;3.13;;;16.30;99.90;;;;;;5094856;28;20496;-62
2023/07/13 01:54:56;;;;;;;9.43;3.20;;;16.30;99.90;;;;;;5094691;28;20040;-63
2023/07/13 01:57:22;;;;;;;7.55;3.35;;;16.20;99.90;;;;;;5094687;28;20475;-63
2023/07/13 01:59:48;;;;;;;10.50;3.20;;;16.20;99.90;;;;;;5094863;28;20361;-63
2023/07/13 02:02:15;;;;;;;9.60;3.25;;;16.10;99.90;;;;;;5094817;28;20056;-63
2023/07/13 02:04:41;;;;;;;9.32;3.35;;;16.20;99.90;;;;;;5094264;28;20039;-62
2023/07/13 02:07:08;;;;;;;8.75;3.03;;;16.10;99.90;;;;;;5093976;28;20502;-62
2023/07/13 02:09:35;;;;;;;9.10;3.40;;;16.10;99.90;;;;;;5094850;28;20044;-63
2023/07/13 02:12:01;;;;;;;10.10;3.40;;;16.10;99.90;;;;;;5094346;28;20354;-63
2023/07/13 02:14:27;;;;;;;6.40;2.72;;;16.00;99.90;;;;;;5094498;28;20055;-62
2023/07/13 02:16:53;;;;;;;8.10;3.30;;;16.00;99.90;;;;;;5094857;28;20052;-63
2023/07/13 02:19:20;;;;;;;9.63;3.08;;;16.00;99.90;;;;;;5094268;28;20435;-63
2023/07/13 02:21:46;;;;;;;8.82;3.10;;;16.00;99.90;;;;;;5094201;28;20059;-63
2023/07/13 02:24:17;;;;;;;11.23;3.47;;;15.90;99.90;;;;;;5094230;28;20044;-63
2023/07/13 02:26:44;;;;;;;11.90;3.55;;;16.00;99.90;;;;;;5094366;28;20048;-62
2023/07/13 02:29:11;;;;;;;7.18;2.60;;;15.90;99.90;;;;;;5094430;28;20097;-64
2023/07/13 02:31:37;;;;;;;11.20;3.75;;;15.90;99.90;;;;;;5094429;28;20109;-63
2023/07/13 02:34:04;;;;;;;9.75;3.55;;;15.90;99.90;;;;;;5094464;28;20056;-63
2023/07/13 02:36:31;;;;;;;12.27;3.20;;;15.90;99.90;;;;;;5093892;28;20048;-62
2023/07/13 02:39:01;;;;;;;11.32;2.92;;;15.80;99.90;;;;;;5094461;28;20047;-63
2023/07/13 02:41:27;;;;;;;10.50;3.42;;;15.80;99.90;;;;;;5092856;28;20048;-62
2023/07/13 02:44:02;;;;;;;11.15;3.42;;;15.80;99.90;;;;;;5093687;28;20048;-63
2023/07/13 02:46:30;;;;;;;8.02;3.47;;;15.80;99.90;;;;;;5093860;28;20385;-62
2023/07/13 02:48:56;;;;;;;8.98;3.40;;;15.80;99.90;;;;;;5094837;28;20356;-62
2023/07/13 02:51:22;;;;;;;8.48;3.08;;;15.70;99.90;;;;;;5093872;28;20222;-62
2023/07/13 02:53:48;;;;;;;11.18;3.33;;;15.70;99.90;;;;;;5093967;28;20506;-62
2023/07/13 02:56:15;;;;;;;7.95;3.13;;;15.80;99.90;;;;;;5094195;28;20055;-64
2023/07/13 02:58:41;;;;;;;9.57;3.85;;;15.80;99.90;;;;;;5093450;28;20487;-64
2023/07/13 03:01:10;;;;;;;10.18;3.40;;;15.90;99.90;;;;;;5093941;28;20078;-64
2023/07/13 03:03:37;;;;;;;8.13;3.08;;;15.80;99.90;;;;;;5093101;28;20386;-63
2023/07/13 03:06:05;;;;;;;11.10;4.10;;;15.80;99.90;;;;;;5093905;28;20044;-63
2023/07/13 03:08:31;;;;;;;8.60;3.50;;;15.90;99.90;;;;;;5093638;28;20426;-63
2023/07/13 03:11:08;;;;;;;13.80;4.18;;;15.90;99.90;;;;;;5093754;28;20055;-63
2023/07/13 03:13:34;;;;;;;11.23;3.15;;;16.00;99.90;;;;;;5092992;28;20415;-63
2023/07/13 03:16:01;;;;;;;9.73;3.17;;;15.90;99.90;;;;;;5092936;28;20368;-63
2023/07/13 03:18:28;;;;;;;8.80;3.95;;;16.00;99.90;;;;;;5092923;28;20342;-62
2023/07/13 03:20:54;;;;;;;9.55;3.50;;;16.00;99.90;;;;;;5093412;28;20048;-63
2023/07/13 03:23:22;;;;;;;7.07;2.85;;;16.00;99.90;;;;;;5092663;28;20460;-63
2023/07/13 03:25:48;;;;;;;8.02;3.95;;;16.00;99.90;;;;;;5093158;28;20044;-63
2023/07/13 03:28:15;;;;;;;8.90;3.25;;;16.00;99.90;;;;;;5092230;28;20383;-62
2023/07/13 03:30:42;;;;;;;9.00;3.33;;;16.00;99.90;;;;;;5092877;28;20502;-63
2023/07/13 03:33:08;;;;;;;9.02;3.35;;;16.00;99.90;;;;;;5092421;28;20044;-63
2023/07/13 03:35:35;;;;;;;9.73;3.95;;;16.00;99.90;;;;;;5092832;28;20040;-64
2023/07/13 03:38:01;;;;;;;9.20;3.17;;;16.00;99.90;;;;;;5092524;28;20369;-63
2023/07/13 03:40:28;;;;;;;9.90;3.47;;;15.90;99.90;;;;;;5093035;28;20405;-63
2023/07/13 03:42:54;;;;;;;12.00;3.53;;;15.90;99.90;;;;;;5092512;28;20459;-64
2023/07/13 03:45:20;;;;;;;8.75;3.95;;;15.80;99.90;;;;;;5092681;28;20044;-63
2023/07/13 03:47:47;;;;;;;9.85;3.47;;;15.80;99.90;;;;;;5092225;28;20040;-62
2023/07/13 03:50:13;;;;;;;9.82;3.67;;;15.70;99.90;;;;;;5092992;28;20051;-63
2023/07/13 03:52:39;;;;;;;8.38;3.75;;;15.70;99.90;;;;;;5092668;28;20048;-62
2023/07/13 03:55:06;;;;;;;7.78;3.50;;;15.70;99.90;;;;;;5092777;28;20468;-63
2023/07/13 03:57:32;;;;;;;9.40;3.63;;;15.70;99.90;;;;;;5092425;28;20058;-63
2023/07/13 03:59:58;;;;;;;8.57;3.65;;;15.70;99.90;;;;;;5092387;28;20059;-62
2023/07/13 04:02:25;;;;;;;8.10;3.60;;;15.80;99.90;;;;;;5092465;28;20052;-63
2023/07/13 04:04:52;;;;;;;9.30;3.90;;;15.70;99.90;;;;;;5092471;28;20054;-64
2023/07/13 04:07:18;;;;;;;11.23;3.90;;;15.70;99.90;;;;;;5089216;28;20415;-64
2023/07/13 04:09:45;;;;;;;8.13;3.75;;;15.70;99.90;;;;;;5082780;28;20440;-64
2023/07/13 04:12:11;;;;;;;8.50;3.85;;;15.70;99.90;;;;;;5078263;28;20483;-63
2023/07/13 04:14:37;;;;;;;9.75;3.45;;;15.70;99.90;;;;;;5085198;28;20346;-63
2023/07/13 04:17:04;;;;;;;9.95;3.40;;;15.70;99.90;;;;;;5079322;28;20071;-63
2023/07/13 04:19:30;;;;;;;10.80;3.60;;;15.70;99.90;;;;;;5080015;28;20109;-63
2023/07/13 04:21:56;;;;;;;9.65;3.97;;;15.70;99.90;;;;;;5078350;28;20051;-64
2023/07/13 04:24:22;;;;;;;9.10;4.15;;;15.70;99.90;;;;;;5082523;28;20475;-63
2023/07/13 04:26:49;;;;;;;9.85;3.85;;;15.80;99.90;;;;;;5075227;28;20124;-62
2023/07/13 04:29:15;;;;;;;9.05;3.60;;;15.80;99.90;;;;;;5079823;28;20098;-62
2023/07/13 04:31:42;;;;;;;8.95;4.25;;;15.80;99.90;;;;;;5080183;28;20127;-63
2023/07/13 04:34:08;;;;;;;9.00;3.15;;;15.80;99.90;;;;;;5071730;28;20121;-64
2023/07/13 04:36:37;;;;;;;7.97;4.00;;;15.80;99.90;;;;;;5074158;28;20052;-64
2023/07/13 04:39:03;;;;;;;12.27;4.07;;;15.80;99.90;;;;;;5071670;28;20427;-63
2023/07/13 04:41:30;;;;;;;7.93;3.78;;;15.80;99.90;;;;;;5072066;28;20468;-63
2023/07/13 04:43:56;;;;;;;12.73;3.90;;;15.90;99.90;;;;;;5080108;28;20383;-63
2023/07/13 04:46:22;;;;;;;7.85;3.70;;;15.90;99.90;;;;;;5079399;28;20047;-63
2023/07/13 04:48:50;;;;;;;12.23;3.72;;;15.90;99.90;;;;;;5091791;28;20118;-62
2023/07/13 04:51:17;;;;;;;8.50;3.80;;;16.10;99.90;;;;;;5091662;28;20044;-63
2023/07/13 04:53:43;;;;;;;11.82;4.10;;;16.10;99.90;;;;;;5091426;28;20047;-62
2023/07/13 04:56:09;;;;;;;10.30;3.97;;;16.10;99.90;;;;;;5091746;28;20048;-63
2023/07/13 04:58:35;;;;;;;11.50;3.75;;;16.20;99.90;;;;;;5091509;28;20044;-63
2023/07/13 05:01:03;;;;;;;9.63;3.80;;;16.70;99.90;;;;;;5091837;28;20075;-63
2023/07/13 05:03:30;;;;;;;9.77;3.47;;;17.30;99.90;;;;;;5091810;28;20040;-63
2023/07/13 05:05:58;;;;;;;8.55;3.83;;;18.10;99.90;;;;;;5089983;28;20437;-63
2023/07/13 05:08:25;;;;;;;9.00;3.90;;;18.60;99.90;;;;;;5085564;28;20387;-63
2023/07/13 05:10:52;;;;;;;8.05;3.85;;;19.20;99.90;;;;;;5085265;28;20047;-63
2023/07/13 05:13:19;;;;;;;11.95;3.70;;;19.60;99.90;;;;;;5077278;28;20416;-64
2023/07/13 05:15:47;;;;;;;11.38;4.10;;;20.00;99.90;;;;;;5092647;28;20044;-63
2023/07/13 05:18:13;;;;;;;7.70;3.80;;;20.30;99.90;;;;;;5085921;28;20048;-63
2023/07/13 05:20:39;;;;;;;8.02;3.10;;;20.70;99.90;;;;;;5087504;28;20044;-63
2023/07/13 05:23:06;;;;;;;6.75;3.47;;;21.00;99.90;;;;;;5083690;28;20044;-63
2023/07/13 05:25:32;;;;;;;9.93;3.50;;;21.30;99.90;;;;;;5077808;28;20449;-63
2023/07/13 05:27:58;;;;;;;7.05;3.42;;;21.70;99.90;;;;;;5075039;28;20052;-64
2023/07/13 05:30:24;;;;;;;8.52;3.33;;;22.10;99.90;;;;;;5075262;28;20056;-65
2023/07/13 05:32:51;;;;;;;10.45;4.03;;;22.30;99.90;;;;;;5074832;28;20465;-64
2023/07/13 05:35:17;;;;;;;8.90;3.75;;;22.40;99.90;;;;;;5093170;28;20067;-63
2023/07/13 05:37:43;;;;;;;6.97;3.40;;;22.60;99.90;;;;;;5076402;28;20056;-63
2023/07/13 05:40:10;;;;;;;9.35;4.07;;;22.80;99.90;;;;;;5075836;28;20423;-64
2023/07/13 05:42:36;;;;;;;10.55;3.42;;;22.80;99.90;;;;;;5074002;28;20408;-64
2023/07/13 05:45:02;;;;;;;8.20;3.58;;;23.00;99.90;;;;;;5088419;28;20052;-64
2023/07/13 05:47:29;;;;;;;8.43;3.58;;;23.30;99.90;;;;;;5080878;28;20056;-63
2023/07/13 05:49:55;;;;;;;9.50;3.70;;;23.40;99.90;;;;;;5080254;28;20068;-63
2023/07/13 05:52:21;;;;;;;7.80;3.13;;;23.50;99.90;;;;;;5057417;28;20045;-63
2023/07/13 05:54:47;;;;;;;7.20;3.50;;;23.70;99.90;;;;;;5088990;28;20078;-65
2023/07/13 05:57:14;;;;;;;8.82;3.47;;;23.60;99.90;;;;;;5094528;28;20056;-64
2023/07/13 05:59:40;;;;;;;9.85;3.63;;;23.30;99.90;;;;;;5077475;28;20066;-63
2023/07/13 06:02:09;;;;;;;8.05;3.10;;;22.50;99.90;;;;;;5092405;28;20044;-63
2023/07/13 06:04:35;;;;;;;6.90;3.17;;;22.00;99.90;;;;;;5084244;28;20033;-63
2023/07/13 06:07:01;;;;;;;10.23;3.75;;;21.70;99.90;;;;;;5084656;28;20047;-63
2023/07/13 06:09:28;;;;;;;8.10;3.30;;;21.70;99.90;;;;;;5082674;28;20075;-64
2023/07/13 06:11:54;;;;;;;8.65;3.50;;;21.60;99.90;;;;;;5079540;28;20087;-63
2023/07/13 06:14:20;;;;;;;9.38;3.67;;;21.60;99.90;;;;;;5085014;28;20468;-63
2023/07/13 06:16:46;;;;;;;10.88;3.38;;;21.50;99.90;;;;;;5094939;28;20075;-63
2023/07/13 06:19:13;;;;;;;9.05;3.42;;;21.50;99.90;;;;;;5094835;28;20109;-63
2023/07/13 06:21:48;;;;;;;8.82;3.22;;;21.30;99.90;;;;;;5094381;28;20052;-64
2023/07/13 06:24:14;;;;;;;9.80;3.47;;;21.40;99.90;;;;;;5094448;28;20101;-64
2023/07/13 06:26:41;;;;;;;11.85;4.20;;;21.10;99.90;;;;;;5095418;28;20036;-63
2023/07/13 06:29:07;;;;;;;8.40;3.30;;;20.80;99.90;;;;;;5093782;28;20447;-64
2023/07/13 06:31:33;;;;;;;7.57;3.60;;;20.50;99.90;;;;;;5094024;28;20086;-62
2023/07/13 06:33:59;;;;;;;9.20;4.13;;;20.50;99.90;;;;;;5094488;28;20259;-63
2023/07/13 06:36:26;;;;;;;8.68;3.42;;;20.40;99.90;;;;;;5094117;28;20048;-64
2023/07/13 06:38:52;;;;;;;8.38;3.60;;;20.30;99.90;;;;;;5094483;28;20066;-64
2023/07/13 06:41:18;;;;;;;10.88;3.92;;;20.20;99.90;;;;;;5094245;28;20048;-64
2023/07/13 06:43:44;;;;;;;9.85;4.10;;;20.20;99.90;;;;;;5076149;28;20036;-63
2023/07/13 06:46:11;;;;;;;9.23;3.78;;;20.00;99.90;;;;;;5093554;28;20080;-63
2023/07/13 06:48:37;;;;;;;10.20;3.72;;;19.80;99.90;;;;;;5085676;28;20044;-63
2023/07/13 06:51:04;;;;;;;7.07;4.00;;;19.60;99.90;;;;;;5065896;28;20045;-63
2023/07/13 06:53:30;;;;;;;12.52;4.25;;;19.50;99.90;;;;;;5087285;28;20105;-64
2023/07/13 06:55:56;;;;;;;8.02;3.40;;;19.40;99.90;;;;;;5094616;28;20077;-64
2023/07/13 06:58:23;;;;;;;9.63;4.18;;;19.40;99.90;;;;;;5093780;28;20070;-64
2023/07/13 07:00:51;;;;;;;8.32;3.80;;;19.30;99.90;;;;;;5093973;28;20081;-63
2023/07/13 07:03:18;;;;;;;14.40;4.03;;;19.40;99.90;;;;;;5093028;28;20407;-64
2023/07/13 07:05:44;;;;;;;10.27;3.90;;;19.30;99.90;;;;;;5093869;28;20048;-63
2023/07/13 07:08:10;;;;;;;9.20;4.30;;;19.30;99.90;;;;;;5093876;28;20059;-64
2023/07/13 07:10:36;;;;;;;9.45;4.22;;;19.30;99.90;;;;;;5093651;28;20048;-63
2023/07/13 07:13:03;;;;;;;12.57;4.72;;;19.30;99.90;;;;;;5093406;28;20051;-63
2023/07/13 07:15:30;;;;;;;11.10;4.60;;;19.30;99.90;;;;;;5092957;28;20097;-63
2023/07/13 07:17:57;;;;;;;13.38;4.93;;;19.30;99.90;;;;;;5093784;28;20117;-63
2023/07/13 07:20:23;;;;;;;9.20;4.55;;;19.40;99.90;;;;;;5092835;28;20141;-63
2023/07/13 07:22:50;;;;;;;12.23;4.45;;;19.50;99.90;;;;;;5093610;28;20052;-63
2023/07/13 07:25:16;;;;;;;13.05;5.40;;;19.40;99.90;;;;;;5080638;28;20052;-63
2023/07/13 07:27:42;;;;;;;11.57;4.90;;;19.50;99.90;;;;;;5081376;28;20043;-63
2023/07/13 07:30:09;;;;;;;10.25;4.80;;;19.70;99.90;;;;;;5093634;28;20055;-63
2023/07/13 07:32:35;;;;;;;13.93;5.22;;;19.80;99.90;;;;;;5093711;28;20064;-63
2023/07/13 07:35:02;;;;;;;10.18;4.70;;;20.00;99.90;;;;;;5092965;28;20477;-64
2023/07/13 07:37:28;;;;;;;12.18;4.95;;;20.10;99.90;;;;;;5093621;28;20059;-63
2023/07/13 07:39:54;;;;;;;15.02;6.30;;;20.10;99.90;;;;;;5093403;28;20055;-63
2023/07/13 07:42:20;;;;;;;12.88;5.18;;;20.20;99.90;;;;;;5095175;28;20059;-63
2023/07/13 07:44:47;;;;;;;12.30;5.10;;;20.30;99.90;;;;;;5093626;28;20044;-63
2023/07/13 07:47:13;;;;;;;11.45;5.15;;;20.40;99.90;;;;;;5093778;28;20054;-63
2023/07/13 07:49:39;;;;;;;14.30;5.65;;;20.60;99.90;;;;;;5093264;28;20048;-63
2023/07/13 07:52:06;;;;;;;12.70;5.03;;;20.60;99.90;;;;;;5093722;28;20052;-64
2023/07/13 07:54:32;;;;;;;15.02;5.47;;;21.00;99.90;;;;;;5093725;28;20048;-63
2023/07/13 07:56:59;;;;;;;10.60;4.80;;;21.40;99.90;;;;;;5093909;28;20052;-63
2023/07/13 07:59:25;;;;;;;10.18;4.85;;;21.30;99.90;;;;;;5093698;28;20067;-64
2023/07/13 08:01:51;;;;;;;11.18;4.70;;;21.30;99.90;;;;;;5091789;28;20456;-64
2023/07/13 08:04:18;;;;;;;14.57;4.75;;;21.30;99.90;;;;;;5086588;28;20372;-63
2023/07/13 08:06:44;;;;;;;11.98;5.28;;;21.00;99.90;;;;;;5075545;28;20441;-63
2023/07/13 08:09:10;;;;;;;14.98;5.75;;;20.90;99.90;;;;;;5093102;28;20055;-64
2023/07/13 08:11:37;;;;;;;10.07;4.90;;;20.80;99.90;;;;;;5093722;28;20117;-64
2023/07/13 08:14:03;;;;;;;9.05;4.90;;;20.70;99.90;;;;;;5093312;28;20051;-63
2023/07/13 08:16:29;;;;;;;9.75;4.70;;;20.60;99.90;;;;;;5093628;28;20052;-63
2023/07/13 08:18:55;;;;;;;11.27;4.65;;;20.60;99.90;;;;;;5093359;28;20056;-64
2023/07/13 08:21:22;;;;;;;8.10;4.57;;;20.50;99.90;;;;;;5093161;28;20052;-63
2023/07/13 08:23:48;;;;;;;10.02;4.10;;;20.50;99.90;;;;;;5093351;28;20399;-63
2023/07/13 08:26:15;;;;;;;10.27;5.00;;;20.50;99.90;;;;;;5093555;28;20040;-63
2023/07/13 08:28:41;;;;;;;13.95;5.80;;;20.40;99.90;;;;;;5075137;28;20394;-63
2023/07/13 08:31:08;;;;;;;10.75;5.30;;;20.40;99.90;;;;;;5067227;28;20048;-63
2023/07/13 08:33:35;;;;;;;8.23;4.72;;;20.30;99.90;;;;;;5074877;28;20439;-64
2023/07/13 08:36:02;;;;;;;8.15;3.38;;;20.30;99.90;;;;;;5074931;28;20087;-63
2023/07/13 08:38:28;;;;;;;12.05;4.45;;;19.90;99.90;;;;;;5076105;28;20086;-64
2023/07/13 08:40:56;;;;;;;14.82;4.05;;;18.20;99.90;;;;;;5078970;28;20406;-64
2023/07/13 08:43:30;;;;;;;8.60;3.72;;;17.40;99.90;;;;;;5096148;28;20063;-64
2023/07/13 08:46:11;;;;;;;15.70;5.07;;;16.60;99.90;;;;;;5096942;28;20109;-64
2023/07/13 08:48:44;;;;;;;7.90;3.50;;;16.00;99.90;;;;;;5078553;28;20051;-64
2023/07/13 08:51:33;;;;;;;9.23;4.35;;;15.70;99.90;;;;;;5079228;28;20051;-64
2023/07/13 08:54:04;;;;;;;6.60;4.20;;;15.60;99.90;;;;;;5079431;28;20468;-64
2023/07/13 08:56:35;;;;;;;7.63;4.13;;;15.50;99.90;;;;;;5079575;28;20113;-63
2023/07/13 08:59:14;;;;;;;10.43;4.38;;;15.40;99.90;;;;;;5096649;28;20048;-65
2023/07/13 09:02:06;;;;;;;5.63;4.00;;;15.40;99.90;;;;;;5097009;28;20048;-64
2023/07/13 09:05:05;;;;;;;5.43;3.10;;;15.50;99.90;;;;;;5096542;28;20143;-65
2023/07/13 09:07:57;;;;;;;5.53;3.08;;;15.50;99.90;;;;;;5079155;28;20044;-63
2023/07/13 09:10:36;;;;;;;6.65;3.28;;;15.40;99.90;;;;;;5096689;28;20047;-64
2023/07/13 09:13:33;;;;;;;4.03;3.10;;;15.50;99.90;;;;;;5096585;28;20384;-64
2023/07/13 09:15:59;;;;;;;4.05;3.13;;;15.60;99.90;;;;;;5083002;28;20052;-63
2023/07/13 09:18:34;;;;;;;5.00;2.75;;;15.60;99.90;;;;;;5096087;28;20044;-64
2023/07/13 09:21:07;;;;;;;4.25;3.00;;;15.70;99.90;;;;;;5095741;28;20048;-63
2023/07/13 09:23:35;;;;;;;5.10;2.70;;;15.80;99.90;;;;;;5095637;28;20369;-63
2023/07/13 09:26:15;;;;;;;6.10;3.20;;;16.00;99.90;;;;;;5096222;28;20318;-63
2023/07/13 09:28:45;;;;;;;5.40;3.00;;;16.30;99.90;;;;;;5092741;28;20338;-63
2023/07/13 09:31:15;;;;;;;5.07;3.28;;;16.40;99.90;;;;;;5096151;28;20416;-64
2023/07/13 09:33:42;;;;;;;4.65;3.50;;;16.60;99.90;;;;;;5095595;28;20093;-63
2023/07/13 09:36:25;;;;;;;5.78;3.67;;;16.60;99.90;;;;;;5095724;28;20040;-65
2023/07/13 09:39:14;;;;;;;5.47;3.38;;;16.90;99.90;;;;;;5095675;28;20048;-64
2023/07/13 09:42:07;;;;;;;5.28;3.42;;;17.00;99.90;;;;;;5095921;28;20047;-64
2023/07/13 09:44:39;;;;;;;7.35;3.95;;;17.20;99.90;;;;;;5096378;28;20056;-63
2023/07/13 09:47:25;;;;;;;6.88;3.90;;;17.30;99.90;;;;;;5096165;28;20048;-63
2023/07/13 09:50:16;;;;;;;7.68;4.32;;;17.30;99.90;;;;;;5094962;28;20048;-64
2023/07/13 09:52:48;;;;;;;6.80;4.63;;;17.60;99.90;;;;;;5095951;28;20054;-63
2023/07/13 09:55:35;;;;;;;6.28;4.38;;;17.90;99.90;;;;;;5096294;28;20368;-63
2023/07/13 09:58:14;;;;;;;8.63;5.18;;;18.10;99.90;;;;;;5095914;28;20085;-63
2023/07/13 10:00:43;;;;;;;7.05;5.55;;;18.50;99.90;;;;;;5095804;28;20125;-63
2023/07/13 10:03:20;;;;;;;8.00;5.60;;;18.80;99.90;;;;;;5096024;28;20052;-64
2023/07/13 10:05:50;;;;;;;7.95;6.05;;;19.30;99.90;;;;;;5095744;28;20545;-64
2023/07/13 10:08:19;;;;;;;8.13;5.30;;;19.30;99.90;;;;;;5095873;28;20057;-64
2023/07/13 10:10:46;;;;;;;6.80;5.28;;;19.40;99.90;;;;;;5095618;28;20402;-63
2023/07/13 10:13:32;;;;;;;8.93;5.85;;;19.40;99.90;;;;;;5095258;28;20047;-63
2023/07/13 10:15:59;;;;;;;9.43;5.78;;;19.70;99.90;;;;;;5075159;28;20492;-63
2023/07/13 10:18:27;;;;;;;7.35;4.80;;;19.90;99.90;;;;;;5075345;28;20055;-64
2023/07/13 10:21:08;;;;;;;9.45;5.03;;;20.00;99.90;;;;;;5057365;28;20052;-63
2023/07/13 10:23:35;;;;;;;8.80;5.63;;;19.90;99.90;;;;;;5076690;28;20044;-64
2023/07/13 10:26:01;;;;;;;8.50;5.82;;;19.80;99.90;;;;;;5095098;28;20457;-64
2023/07/13 10:28:37;;;;;;;12.88;5.45;;;19.70;99.90;;;;;;5095195;28;20056;-63
2023/07/13 10:31:11;;;;;;;8.82;4.88;;;19.60;99.90;;;;;;5095236;28;20361;-64
2023/07/13 10:33:38;;;;;;;10.50;5.90;;;19.40;99.90;;;;;;5095138;28;20110;-64
2023/07/13 10:36:23;;;;;;;8.63;5.88;;;19.40;99.90;;;;;;5091093;28;20060;-64
2023/07/13 10:38:51;;;;;;;6.50;5.70;;;19.30;99.90;;;;;;5093733;28;20048;-63
2023/07/13 10:41:20;;;;;;;7.55;4.95;;;19.30;99.90;;;;;;5095448;28;20048;-64
2023/07/13 10:43:57;;;;;;;7.10;3.80;;;19.20;99.90;;;;;;5095449;28;20040;-63
2023/07/13 10:46:27;;;;;;;4.43;3.55;;;19.10;99.90;;;;;;5094838;28;20048;-63
2023/07/13 10:49:06;;;;;;;4.43;3.28;;;19.10;99.90;;;;;;5089013;28;20044;-64
2023/07/13 10:51:33;;;;;;;4.50;3.08;;;19.20;99.90;;;;;;5074226;28;20048;-64
2023/07/13 10:54:22;;;;;;;4.63;3.40;;;19.10;99.90;;;;;;5078828;28;20044;-63
2023/07/13 10:57:08;;;;;;;5.90;3.08;;;19.10;99.90;;;;;;5094477;28;20048;-64
2023/07/13 10:59:34;;;;;;;4.78;3.20;;;19.20;99.90;;;;;;5093905;28;20044;-63
2023/07/13 11:02:06;;;;;;;5.15;3.00;;;19.30;99.90;;;;;;5093536;28;20113;-63
2023/07/13 11:04:45;;;;;;;6.35;3.60;;;19.40;99.90;;;;;;5094255;28;20048;-63
2023/07/13 11:07:22;;;;;;;6.10;3.47;;;19.80;99.90;;;;;;5094877;28;20055;-63
2023/07/13 11:10:31;;;;;;;5.55;3.17;;;19.90;99.90;;;;;;5074874;28;20044;-63
2023/07/13 11:12:57;;;;;;;5.93;3.58;;;20.20;99.90;;;;;;5093910;28;20131;-63
2023/07/13 11:15:32;;;;;;;6.82;4.10;;;20.40;99.90;;;;;;5094217;28;20052;-63
2023/07/13 11:18:03;;;;;;;7.38;3.80;;;20.60;99.90;;;;;;5094010;28;20056;-64
2023/07/13 11:20:39;;;;;;;6.22;3.63;;;20.60;99.90;;;;;;5094134;28;20048;-65
2023/07/13 11:23:26;;;;;;;5.50;3.70;;;20.70;99.90;;;;;;5094153;28;20399;-63
2023/07/13 11:25:53;;;;;;;6.28;3.38;;;20.80;99.90;;;;;;5075816;28;20055;-63
2023/07/13 11:28:24;;;;;;;5.72;3.67;;;20.80;99.90;;;;;;5093749;28;20043;-65
2023/07/13 11:30:55;;;;;;;6.90;3.78;;;21.10;99.90;;;;;;5093947;28;20044;-63
2023/07/13 11:33:36;;;;;;;5.68;4.07;;;21.30;99.90;;;;;;5093807;28;20048;-63
2023/07/13 11:36:22;;;;;;;6.35;4.20;;;21.40;99.90;;;;;;5080493;28;20044;-63
2023/07/13 11:39:00;;;;;;;7.90;3.25;;;21.70;99.90;;;;;;5093589;28;20059;-63
2023/07/13 11:41:43;;;;;;;7.05;2.85;;;21.80;99.90;;;;;;5093496;28;20361;-63
2023/07/13 11:44:14;;;;;;;5.35;2.58;;;21.90;99.90;;;;;;5092712;28;20169;-63
2023/07/13 11:46:48;;;;;;;5.82;3.42;;;21.90;99.90;;;;;;5094056;28;20040;-63
2023/07/13 11:49:42;;;;;;;5.75;2.92;;;21.90;99.90;;;;;;5093316;28;20040;-63
2023/07/13 11:52:16;;;;;;;6.00;3.15;;;21.90;99.90;;;;;;5093519;28;20051;-63
2023/07/13 11:54:58;;;;;;;5.50;3.08;;;21.90;99.90;;;;;;5091196;28;20051;-63
2023/07/13 11:57:34;;;;;;;6.60;2.80;;;21.80;99.90;;;;;;5093587;28;20052;-63
2023/07/13 12:00:12;;;;;;;7.78;2.85;;;22.00;99.90;;;;;;5093689;28;20121;-63
2023/07/13 12:02:42;;;;;;;5.97;3.22;;;22.00;99.90;;;;;;5093992;28;20039;-63
2023/07/13 12:05:15;;;;;;;6.03;2.88;;;22.30;99.90;;;;;;5093308;28;20411;-63
2023/07/13 12:07:41;;;;;;;5.32;2.33;;;22.20;99.90;;;;;;5093920;28;20364;-63
2023/07/13 12:10:19;;;;;;;4.90;2.90;;;22.10;99.90;;;;;;5093344;28;20047;-63
2023/07/13 12:12:55;;;;;;;5.93;2.70;;;22.10;99.90;;;;;;5092933;28;20113;-64
2023/07/13 12:15:24;;;;;;;4.95;2.60;;;22.20;99.90;;;;;;5092029;28;20054;-63
2023/07/13 12:17:50;;;;;;;4.32;2.10;;;22.40;99.90;;;;;;5093329;28;20044;-63
2023/07/13 12:20:29;;;;;;;6.97;2.85;;;22.30;99.90;;;;;;5094038;28;20101;-63
2023/07/13 12:22:56;;;;;;;6.28;3.35;;;22.20;99.90;;;;;;5093250;28;20048;-63
2023/07/13 12:25:23;;;;;;;5.15;2.60;;;22.40;99.90;;;;;;5092704;28;20469;-63
2023/07/13 12:27:51;;;;;;;4.90;2.35;;;22.40;99.90;;;;;;5093057;28;20052;-63
2023/07/13 12:30:30;;;;;;;5.13;2.65;;;22.40;99.90;;;;;;5092796;28;20117;-64
2023/07/13 12:32:58;;;;;;;5.93;2.17;;;22.40;99.90;;;;;;5092825;28;20046;-63
2023/07/13 12:35:29;;;;;;;6.18;2.28;;;22.30;99.30;;;;;;5091104;28;20056;-63
2023/07/13 12:38:00;;;;;;;9.98;4.35;;;22.40;99.90;;;;;;5092667;28;20056;-64
2023/07/13 12:40:34;;;;;;;4.55;2.58;;;22.50;99.90;;;;;;5092898;28;20058;-64
2023/07/13 12:43:04;;;;;;;6.93;3.30;;;22.50;99.90;;;;;;5092687;28;20431;-62
2023/07/13 12:45:31;;;;;;;4.93;2.25;;;22.70;99.90;;;;;;5090982;28;20044;-63
2023/07/13 12:48:10;;;;;;;5.28;2.38;;;22.70;99.90;;;;;;5091984;28;20453;-63
2023/07/13 12:50:45;;;;;;;5.82;2.53;;;22.80;99.90;;;;;;5092992;28;20426;-63
2023/07/13 12:53:19;;;;;;;6.00;2.63;;;22.60;99.90;;;;;;5092799;28;20380;-63
2023/07/13 12:55:52;;;;;;;5.75;2.92;;;22.80;99.90;;;;;;5092394;28;20059;-64